Time;durP1;ratioP1;P1;durP2;ratioP2;P2;SDS_P1;SDS_P2;PMS_P1;PMS_P2;Temp;Humidity;BMP_temperature;BMP_pressure;BME280_temperature;BME280_humidity;BME280_pressure;Samples;Min_cycle;Max_cycle;Signal;HPM_P1;HPM_P2
2021/12/25 00:00:45;;;;;;;;;;;256.10;2252.80;;;;;;4753696;30;19910;-55
2021/12/25 00:03:11;;;;;;;;;;;256.10;2252.80;;;;;;4753735;30;20376;-54
2021/12/25 00:05:37;;;;;;;;;;;256.10;2252.80;;;;;;4753489;30;19967;-54
2021/12/25 00:08:03;;;;;;;;;;;256.10;2252.80;;;;;;4753658;30;19917;-54
2021/12/25 00:10:30;;;;;;;;;;;256.10;2252.80;;;;;;4753539;30;19939;-54
2021/12/25 00:12:56;;;;;;;;;;;256.00;2252.80;;;;;;4753697;30;19917;-54
2021/12/25 00:15:22;;;;;;;;;;;231.30;2252.80;;;;;;4753893;30;19933;-54
2021/12/25 00:17:48;;;;;;;;;;;231.30;2252.80;;;;;;4753565;30;20364;-55
2021/12/25 00:20:13;;;;;;;;;;;231.30;2252.80;;;;;;4753585;30;19910;-54
2021/12/25 00:22:39;;;;;;;;;;;231.20;2252.80;;;;;;4753478;30;20012;-54
2021/12/25 00:25:05;;;;;;;;;;;231.10;2252.80;;;;;;4753058;30;20443;-54
2021/12/25 00:27:45;;;;;;;;;;;231.10;2252.80;;;;;;4752568;30;19910;-54
2021/12/25 00:30:28;;;;;;;;;;;231.10;2252.80;;;;;;4753128;30;19925;-54
2021/12/25 00:33:05;;;;;;;;;;;231.00;2252.80;;;;;;4753314;30;20374;-54
2021/12/25 00:35:30;;;;;;;;;;;231.00;2252.80;;;;;;4753163;30;19914;-55
2021/12/25 00:37:56;;;;;;;;;;;231.00;2252.80;;;;;;4753250;30;19917;-54
2021/12/25 00:40:22;;;;;;;;;;;231.00;2252.80;;;;;;4753114;30;19914;-54
2021/12/25 00:42:48;;;;;;;;;;;231.00;2252.80;;;;;;4753169;30;19910;-54
2021/12/25 00:45:14;;;;;;;;;;;231.00;2252.80;;;;;;4752955;30;19959;-57
2021/12/25 00:47:40;;;;;;;;;;;231.10;2252.80;;;;;;4752967;30;19918;-55
2021/12/25 00:50:06;;;;;;;;;;;231.10;2252.80;;;;;;4753200;30;20338;-55
2021/12/25 00:52:32;;;;;;;;;;;231.20;2252.80;;;;;;4752832;30;19910;-54
2021/12/25 00:54:57;;;;;;;;;;;231.30;2252.80;;;;;;4752842;30;19952;-56
2021/12/25 00:57:23;;;;;;;;;;;231.30;2252.80;;;;;;4753056;30;19960;-55
2021/12/25 00:59:49;;;;;;;;;;;231.30;2252.80;;;;;;4753106;30;19960;-54
2021/12/25 01:02:14;;;;;;;;;;;256.00;2252.80;;;;;;4752861;30;19960;-54
2021/12/25 01:04:40;;;;;;;;;;;256.00;2252.80;;;;;;4752966;30;19972;-54
2021/12/25 01:07:06;;;;;;;;;;;256.00;2252.80;;;;;;4752702;30;19957;-56
2021/12/25 01:09:31;;;;;;;;;;;256.00;2252.80;;;;;;4752742;30;19953;-54
2021/12/25 01:11:58;;;;;;;;;;;256.00;2252.80;;;;;;4753036;30;20004;-55
2021/12/25 01:14:38;;;;;;;;;;;231.30;2252.80;;;;;;4752851;30;20284;-54
2021/12/25 01:25:43;;;;;;;;;;;231.20;2252.80;;;;;;4752603;30;19922;-54
2021/12/25 01:28:43;;;;;;;;;;;231.20;2252.80;;;;;;4752208;30;19910;-53
2021/12/25 01:41:16;;;;;;;;;;;231.10;2252.80;;;;;;4756149;30;20012;-57
2021/12/25 01:49:41;;;;;;;;;;;231.10;2252.80;;;;;;4736238;30;20417;-55
2021/12/25 01:52:07;;;;;;;;;;;231.10;2252.80;;;;;;4736348;30;20026;-54
2021/12/25 01:54:32;;;;;;;;;;;231.10;2252.80;;;;;;4745469;30;19910;-54
2021/12/25 01:56:58;;;;;;;;;;;231.10;2252.80;;;;;;4755901;30;20280;-57
2021/12/25 01:59:24;;;;;;;;;;;231.20;2252.80;;;;;;4755869;30;20269;-55
2021/12/25 02:01:50;;;;;;;;;;;231.30;2252.80;;;;;;4755796;30;20365;-54
2021/12/25 02:04:15;;;;;;;;;;;231.30;2252.80;;;;;;4755698;30;19914;-54
2021/12/25 02:06:41;;;;;;;;;;;256.00;2252.80;;;;;;4755576;30;20334;-53
2021/12/25 02:09:07;;;;;;;;;;;256.00;2252.80;;;;;;4755633;30;19916;-54
2021/12/25 02:11:33;;;;;;;;;;;256.00;2252.80;;;;;;4755618;30;20005;-54
2021/12/25 02:13:58;;;;;;;;;;;256.00;2252.80;;;;;;4755565;30;19917;-54
2021/12/25 02:16:28;;;;;;;;;;;256.00;2252.80;;;;;;4755263;30;19914;-55
2021/12/25 02:19:06;;;;;;;;;;;256.00;2252.80;;;;;;4725555;30;19933;-54
2021/12/25 02:21:39;;;;;;;;;;;231.30;2252.80;;;;;;4755507;30;20284;-54
2021/12/25 02:24:11;;;;;;;;;;;231.30;2252.80;;;;;;4755371;30;19918;-54
2021/12/25 02:26:39;;;;;;;;;;;231.30;2252.80;;;;;;4755546;30;20333;-54
2021/12/25 02:29:04;;;;;;;;;;;231.30;2252.80;;;;;;4755308;30;19968;-54
2021/12/25 02:31:30;;;;;;;;;;;231.30;2252.80;;;;;;4755171;30;20295;-54
2021/12/25 02:33:56;;;;;;;;;;;256.00;2252.80;;;;;;4755312;30;19927;-54
2021/12/25 02:36:21;;;;;;;;;;;256.00;2252.80;;;;;;4755085;30;20004;-54
2021/12/25 02:38:48;;;;;;;;;;;256.00;2252.80;;;;;;4754999;30;19910;-57
2021/12/25 02:41:14;;;;;;;;;;;256.00;2252.80;;;;;;4755455;30;19914;-54
2021/12/25 02:43:43;;;;;;;;;;;256.10;2252.80;;;;;;4755084;30;19963;-54
2021/12/25 02:46:09;;;;;;;;;;;256.10;2252.80;;;;;;4754927;30;19915;-54
2021/12/25 02:48:38;;;;;;;;;;;256.10;2252.80;;;;;;4754808;30;19910;-54
2021/12/25 02:51:04;;;;;;;;;;;256.10;2252.80;;;;;;4753970;30;19918;-54
2021/12/25 02:53:30;;;;;;;;;;;256.10;2252.80;;;;;;4754972;30;19993;-57
2021/12/25 02:55:56;;;;;;;;;;;256.10;2252.80;;;;;;4738874;30;20005;-54
2021/12/25 02:58:21;;;;;;;;;;;256.10;2252.80;;;;;;4754564;30;19910;-54
2021/12/25 03:00:52;;;;;;;;;;;256.10;2252.80;;;;;;4754819;30;19910;-57
2021/12/25 03:03:18;;;;;;;;;;;256.10;2252.80;;;;;;4738879;30;19910;-54
2021/12/25 03:05:44;;;;;;;;;;;256.10;2252.80;;;;;;4754836;30;20005;-54
2021/12/25 03:08:10;;;;;;;;;;;256.10;2252.80;;;;;;4754629;30;20365;-54
2021/12/25 03:10:36;;;;;;;;;;;256.20;2252.80;;;;;;4754572;30;19941;-54
2021/12/25 03:15:45;;;;;;;;;;;256.20;2252.80;;;;;;4754793;30;19910;-54
2021/12/25 03:18:21;;;;;;;;;;;256.20;2252.80;;;;;;4754498;30;19978;-55
2021/12/25 03:20:49;;;;;;;;;;;256.30;2252.80;;;;;;4754863;30;19960;-56
2021/12/25 03:23:16;;;;;;;;;;;256.30;2252.80;;;;;;4754397;30;19917;-54
2021/12/25 03:25:43;;;;;;;;;;;256.30;2252.80;;;;;;4754290;30;19922;-57
2021/12/25 03:28:09;;;;;;;;;;;256.30;2252.80;;;;;;4754047;30;19910;-54
2021/12/25 03:30:38;;;;;;;;;;;256.30;2252.80;;;;;;4754242;30;19918;-54
2021/12/25 03:33:08;;;;;;;;;;;256.30;2252.80;;;;;;4754237;30;19933;-54
2021/12/25 03:35:34;;;;;;;;;;;256.30;2252.80;;;;;;4754241;30;19968;-54
2021/12/25 03:38:04;;;;;;;;;;;256.20;2252.80;;;;;;4737974;30;19918;-54
2021/12/25 03:40:30;;;;;;;;;;;256.20;2252.80;;;;;;4753819;30;19918;-55
2021/12/25 03:42:56;;;;;;;;;;;256.20;2252.80;;;;;;4754240;30;20010;-55
2021/12/25 03:45:23;;;;;;;;;;;256.10;2252.80;;;;;;4753902;30;20021;-55
2021/12/25 03:47:51;;;;;;;;;;;256.10;2252.80;;;;;;4753707;30;19961;-54
2021/12/25 03:53:24;;;;;;;;;;;256.00;2252.80;;;;;;4753931;30;19914;-54
2021/12/25 03:58:34;;;;;;;;;;;231.20;2252.80;;;;;;4753718;30;19917;-54
2021/12/25 04:01:12;;;;;;;;;;;231.10;2252.80;;;;;;4753674;30;20371;-54
2021/12/25 04:03:59;;;;;;;;;;;231.00;2252.80;;;;;;4754028;30;19918;-54
2021/12/25 04:06:24;;;;;;;;;;;231.00;2252.80;;;;;;4753636;30;19916;-55
2021/12/25 04:08:51;;;;;;;;;;;230.90;2252.80;;;;;;4753510;30;20012;-54
2021/12/25 04:11:27;;;;;;;;;;;230.80;2252.80;;;;;;4753516;30;19918;-54
2021/12/25 04:13:53;;;;;;;;;;;230.70;2252.80;;;;;;4755376;30;19910;-54
2021/12/25 04:16:19;;;;;;;;;;;230.70;2252.80;;;;;;4768654;30;20344;-54
2021/12/25 04:18:44;;;;;;;;;;;230.70;2252.80;;;;;;4771106;30;19927;-54
2021/12/25 04:21:10;;;;;;;;;;;230.60;2252.80;;;;;;4771269;30;20280;-54
2021/12/25 04:23:39;;;;;;;;;;;230.60;2252.80;;;;;;4763181;30;20000;-57
2021/12/25 04:26:05;;;;;;;;;;;230.60;2252.80;;;;;;4761051;30;19929;-54
2021/12/25 04:28:43;;;;;;;;;;;230.50;2252.80;;;;;;4762493;30;19914;-54
2021/12/25 05:03:41;;;;;;;;;;;230.90;2252.80;;;;;;4771063;30;19940;-54
2021/12/25 05:06:06;;;;;;;;;;;230.90;2252.80;;;;;;4770632;30;19910;-54
2021/12/25 05:08:32;;;;;;;;;;;230.90;2252.80;;;;;;4770654;30;20245;-54
2021/12/25 05:10:58;;;;;;;;;;;230.90;2252.80;;;;;;4765122;30;19984;-53
2021/12/25 05:13:23;;;;;;;;;;;230.80;2252.80;;;;;;4763631;30;19945;-55
2021/12/25 05:15:49;;;;;;;;;;;230.80;2252.80;;;;;;4764746;30;19910;-54
2021/12/25 05:18:15;;;;;;;;;;;230.80;2252.80;;;;;;4761816;30;19910;-54
2021/12/25 05:20:41;;;;;;;;;;;230.90;2252.80;;;;;;4759942;30;20281;-54
2021/12/25 05:23:07;;;;;;;;;;;230.90;2252.80;;;;;;4768152;30;20395;-54
2021/12/25 05:25:33;;;;;;;;;;;230.90;2252.80;;;;;;4771182;30;20422;-55
2021/12/25 05:28:01;;;;;;;;;;;230.90;2252.80;;;;;;4765334;30;19979;-54
2021/12/25 05:30:27;;;;;;;;;;;230.90;2252.80;;;;;;4764327;30;19922;-53
2021/12/25 05:32:53;;;;;;;;;;;230.90;2252.80;;;;;;4763707;30;20001;-56
2021/12/25 05:35:19;;;;;;;;;;;230.90;2252.80;;;;;;4763714;30;19917;-56
2021/12/25 05:37:45;;;;;;;;;;;230.90;2252.80;;;;;;4764785;30;20024;-54
2021/12/25 05:40:12;;;;;;;;;;;231.00;2252.80;;;;;;4764522;30;19918;-53
2021/12/25 05:42:38;;;;;;;;;;;231.00;2252.80;;;;;;4763064;30;19913;-54
2021/12/25 05:45:03;;;;;;;;;;;231.00;2252.80;;;;;;4765300;30;19914;-53
2021/12/25 05:47:29;;;;;;;;;;;231.00;2252.80;;;;;;4765165;30;19917;-54
2021/12/25 05:49:55;;;;;;;;;;;231.10;2252.80;;;;;;4763309;30;20307;-57
2021/12/25 05:52:20;;;;;;;;;;;231.10;2252.80;;;;;;4764243;30;19913;-56
2021/12/25 05:54:46;;;;;;;;;;;231.20;2252.80;;;;;;4765093;30;19913;-56
2021/12/25 05:57:11;;;;;;;;;;;231.30;2252.80;;;;;;4764503;30;19918;-54
2021/12/25 05:59:37;;;;;;;;;;;256.00;2252.80;;;;;;4763091;30;19910;-57
2021/12/25 06:02:03;;;;;;;;;;;231.10;2252.80;;;;;;4761832;30;19921;-55
2021/12/25 06:04:28;;;;;;;;;;;256.00;2252.80;;;;;;4758025;30;19910;-54
2021/12/25 06:06:54;;;;;;;;;;;231.30;2252.80;;;;;;4757956;30;20296;-54
2021/12/25 06:09:20;;;;;;;;;;;231.30;2252.80;;;;;;4766992;30;19918;-54
2021/12/25 06:11:45;;;;;;;;;;;231.30;2252.80;;;;;;4773049;30;20282;-54
2021/12/25 06:14:18;;;;;;;;;;;231.30;2252.80;;;;;;4772206;30;19916;-54
2021/12/25 06:16:44;;;;;;;;;;;231.30;2252.80;;;;;;4773377;30;19918;-53
2021/12/25 06:19:12;;;;;;;;;;;256.00;2252.80;;;;;;4773572;30;19914;-54
2021/12/25 06:21:38;;;;;;;;;;;256.00;2252.80;;;;;;4769624;30;19914;-57
2021/12/25 06:24:05;;;;;;;;;;;256.00;2252.80;;;;;;4771944;30;19925;-57
2021/12/25 06:26:31;;;;;;;;;;;256.10;2252.80;;;;;;4772341;30;20431;-57
2021/12/25 06:28:57;;;;;;;;;;;256.10;2252.80;;;;;;4772240;30;19910;-57
2021/12/25 06:31:23;;;;;;;;;;;256.20;2252.80;;;;;;4771930;30;19985;-57
2021/12/25 06:33:49;;;;;;;;;;;256.20;2252.80;;;;;;4772354;30;19910;-57
2021/12/25 06:36:15;;;;;;;;;;;256.30;2252.80;;;;;;4771977;30;19910;-57
2021/12/25 06:38:41;;;;;;;;;;;256.20;2252.80;;;;;;4772046;30;19917;-57
2021/12/25 06:41:08;;;;;;;;;;;256.30;2252.80;;;;;;4771875;30;19909;-54
2021/12/25 06:43:34;;;;;;;;;;;256.30;2252.80;;;;;;4771946;30;19937;-56
2021/12/25 06:46:00;;;;;;;;;;;256.30;2252.80;;;;;;4771730;30;19909;-57
2021/12/25 06:48:26;;;;;;;;;;;256.30;2252.80;;;;;;4771786;30;19916;-57
2021/12/25 06:50:52;;;;;;;;;;;256.40;2252.80;;;;;;4771486;30;19922;-57
2021/12/25 06:53:18;;;;;;;;;;;256.40;2252.80;;;;;;4755764;30;19917;-58
2021/12/25 06:55:43;;;;;;;;;;;256.50;2252.80;;;;;;4771617;30;19942;-57
2021/12/25 06:58:09;;;;;;;;;;;256.50;2252.80;;;;;;4771553;30;19917;-55
2021/12/25 07:00:35;;;;;;;;;;;256.60;2252.80;;;;;;4771709;30;19932;-58
2021/12/25 07:03:01;;;;;;;;;;;256.60;2252.80;;;;;;4771312;30;19913;-56
2021/12/25 07:05:26;;;;;;;;;;;256.60;2252.80;;;;;;4771702;30;19910;-57
2021/12/25 07:07:52;;;;;;;;;;;256.60;2252.80;;;;;;4771299;30;19910;-57
2021/12/25 07:10:18;;;;;;;;;;;256.70;2252.80;;;;;;4771591;30;20366;-58
2021/12/25 07:12:46;;;;;;;;;;;256.70;2252.80;;;;;;4755265;30;19959;-57
2021/12/25 07:15:13;;;;;;;;;;;256.70;2252.80;;;;;;4771568;30;19969;-57
2021/12/25 07:17:38;;;;;;;;;;;256.80;2252.80;;;;;;4771266;30;20326;-57
2021/12/25 07:20:07;;;;;;;;;;;256.80;2252.80;;;;;;4771205;30;19975;-56
2021/12/25 07:22:33;;;;;;;;;;;256.90;2252.80;;;;;;4771021;30;19937;-57
2021/12/25 07:24:59;;;;;;;;;;;281.60;2278.40;;;;;;4784687;30;19972;-56
2021/12/25 07:27:24;;;;;;;;;;;281.60;2278.40;;;;;;4771281;30;19917;-56
2021/12/25 07:29:50;;;;;;;;;;;281.60;2278.40;;;;;;4770904;30;19974;-53
2021/12/25 07:32:16;;;;;;;;;;;281.60;2278.40;;;;;;4771183;30;19914;-57
2021/12/25 07:34:51;;;;;;;;;;;281.60;2278.40;;;;;;4771047;30;19910;-55
2021/12/25 07:37:17;;;;;;;;;;;281.60;2278.40;;;;;;4763863;30;19978;-55
2021/12/25 07:39:43;;;;;;;;;;;281.70;2278.40;;;;;;4762381;30;19967;-55
2021/12/25 07:42:09;;;;;;;;;;;281.80;2278.40;;;;;;4760359;30;19910;-54
2021/12/25 07:44:35;;;;;;;;;;;281.80;2278.40;;;;;;4765527;30;19910;-57
2021/12/25 07:47:01;;;;;;;;;;;281.90;2278.40;;;;;;4770884;30;20325;-58
2021/12/25 07:49:27;;;;;;;;;;;282.10;2278.40;;;;;;4771071;30;19910;-54
2021/12/25 07:51:53;;;;;;;;;;;282.30;2278.40;;;;;;4770446;30;19920;-54
2021/12/25 07:54:19;;;;;;;;;;;282.20;2278.40;;;;;;4770985;30;20004;-55
2021/12/25 07:56:44;;;;;;;;;;;282.20;2278.40;;;;;;4770434;30;19960;-55
2021/12/25 07:59:10;;;;;;;;;;;282.20;2278.40;;;;;;4770816;30;19913;-58
2021/12/25 08:01:36;;;;;;;;;;;282.20;2278.40;;;;;;4770677;30;19960;-57
2021/12/25 08:04:02;;;;;;;;;;;282.20;2278.40;;;;;;4770283;30;20004;-54
2021/12/25 08:06:28;;;;;;;;;;;282.20;2278.40;;;;;;4770572;30;19948;-57
2021/12/25 08:08:56;;;;;;;;;;;282.20;2278.40;;;;;;4770603;30;20364;-53
2021/12/25 08:11:22;;;;;;;;;;;282.20;2278.40;;;;;;4770569;30;19967;-54
2021/12/25 08:13:48;;;;;;;;;;;282.20;2278.40;;;;;;4770154;30;20004;-56
2021/12/25 08:16:13;;;;;;;;;;;282.20;2278.40;;;;;;4755107;30;20424;-54
2021/12/25 08:18:39;;;;;;;;;;;282.10;2278.40;;;;;;4752738;30;20022;-56
2021/12/25 08:21:05;;;;;;;;;;;282.10;2278.40;;;;;;4752686;30;20344;-54
2021/12/25 08:23:32;;;;;;;;;;;282.10;2278.40;;;;;;4752246;30;19961;-56
2021/12/25 08:25:58;;;;;;;;;;;282.10;2278.40;;;;;;4752347;30;19929;-54
2021/12/25 08:28:24;;;;;;;;;;;282.00;2278.40;;;;;;4752439;30;19910;-57
2021/12/25 08:30:50;;;;;;;;;;;282.00;2278.40;;;;;;4752571;30;19944;-57
2021/12/25 08:33:18;;;;;;;;;;;282.10;2278.40;;;;;;4752669;30;20432;-56
2021/12/25 08:35:43;;;;;;;;;;;282.10;2278.40;;;;;;4761454;30;19971;-57
2021/12/25 08:38:11;;;;;;;;;;;282.20;2278.40;;;;;;4759766;30;20047;-56
2021/12/25 08:40:38;;;;;;;;;;;282.20;2278.40;;;;;;4757301;30;19909;-54
2021/12/25 08:43:04;;;;;;;;;;;282.40;2278.40;;;;;;4759447;30;20364;-55
2021/12/25 08:45:42;;;;;;;;;;;282.50;2278.40;;;;;;4757514;30;19925;-61
2021/12/25 08:48:26;;;;;;;;;;;307.20;2304.00;;;;;;4758609;30;19914;-57
2021/12/25 08:50:56;;;;;;;;;;;307.20;2304.00;;;;;;4758891;30;19926;-64
2021/12/25 08:53:23;;;;;;;;;;;307.20;2304.00;;;;;;4757585;30;19925;-58
2021/12/25 08:55:50;;;;;;;;;;;307.30;2304.00;;;;;;4759550;30;20008;-58
2021/12/25 08:58:17;;;;;;;;;;;307.40;2304.00;;;;;;4760717;30;20004;-56
2021/12/25 09:00:43;;;;;;;;;;;307.40;2304.00;;;;;;4760475;30;19910;-57
2021/12/25 09:03:09;;;;;;;;;;;307.40;2304.00;;;;;;4758464;30;19910;-55
2021/12/25 09:05:35;;;;;;;;;;;307.50;2304.00;;;;;;4760383;30;20520;-55
2021/12/25 09:08:01;;;;;;;;;;;307.50;2304.00;;;;;;4759955;30;19921;-57
2021/12/25 09:10:28;;;;;;;;;;;307.60;2304.00;;;;;;4759305;30;20402;-57
2021/12/25 09:12:54;;;;;;;;;;;307.50;2304.00;;;;;;4760518;30;19932;-57
2021/12/25 09:15:23;;;;;;;;;;;307.50;2304.00;;;;;;4762164;30;19979;-56
2021/12/25 09:17:49;;;;;;;;;;;307.60;2304.00;;;;;;4758644;30;19934;-57
2021/12/25 09:20:18;;;;;;;;;;;307.60;2304.00;;;;;;4760075;30;20422;-58
2021/12/25 09:22:44;;;;;;;;;;;307.60;2304.00;;;;;;4760222;30;20376;-57
2021/12/25 09:25:09;;;;;;;;;;;307.60;2304.00;;;;;;4758227;30;20008;-58
2021/12/25 09:27:35;;;;;;;;;;;307.60;2304.00;;;;;;4761345;30;19910;-55
2021/12/25 09:30:01;;;;;;;;;;;307.50;2304.00;;;;;;4759266;30;19924;-57
2021/12/25 09:32:27;;;;;;;;;;;307.60;2304.00;;;;;;4758016;30;19921;-59
2021/12/25 09:34:53;;;;;;;;;;;307.50;2304.00;;;;;;4760339;30;20360;-57
2021/12/25 09:37:21;;;;;;;;;;;307.60;2304.00;;;;;;4755813;30;20402;-56
2021/12/25 09:39:47;;;;;;;;;;;307.60;2304.00;;;;;;4759679;30;20158;-56
2021/12/25 09:42:12;;;;;;;;;;;307.50;2304.00;;;;;;4757220;30;19967;-55
2021/12/25 09:44:38;;;;;;;;;;;307.60;2304.00;;;;;;4757217;30;19918;-56
2021/12/25 09:47:04;;;;;;;;;;;307.60;2304.00;;;;;;4757230;30;19913;-55
2021/12/25 09:49:33;;;;;;;;;;;307.60;2304.00;;;;;;4757553;30;19916;-65
2021/12/25 09:51:59;;;;;;;;;;;307.60;2304.00;;;;;;4757053;30;19918;-56
2021/12/25 09:54:26;;;;;;;;;;;307.50;2304.00;;;;;;4758259;30;20368;-61
2021/12/25 09:56:54;;;;;;;;;;;307.60;2304.00;;;;;;4759685;30;20292;-56
2021/12/25 09:59:22;;;;;;;;;;;307.60;2304.00;;;;;;4752743;30;19977;-56
2021/12/25 10:01:49;;;;;;;;;;;307.60;2304.00;;;;;;4754566;30;19959;-57
2021/12/25 10:04:53;;;;;;;;;;;307.60;2304.00;;;;;;4756588;30;20299;-55
2021/12/25 10:07:21;;;;;;;;;;;307.50;2304.00;;;;;;4724107;30;20044;-55
2021/12/25 10:09:54;;;;;;;;;;;307.60;2304.00;;;;;;4731974;30;19914;-56
2021/12/25 10:12:20;;;;;;;;;;;307.60;2304.00;;;;;;4729011;30;19922;-57
2021/12/25 10:14:51;;;;;;;;;;;307.50;2304.00;;;;;;4725491;30;20131;-56
2021/12/25 10:17:26;;;;;;;;;;;307.50;2304.00;;;;;;4725873;30;19911;-57
2021/12/25 10:20:07;;;;;;;;;;;307.40;2304.00;;;;;;4729356;30;19910;-64
2021/12/25 10:22:33;;;;;;;;;;;307.40;2304.00;;;;;;4723773;30;19915;-61
2021/12/25 10:25:07;;;;;;;;;;;307.40;2304.00;;;;;;4716007;30;20437;-57
2021/12/25 10:27:33;;;;;;;;;;;307.50;2304.00;;;;;;4716863;30;19933;-57
2021/12/25 10:30:00;;;;;;;;;;;307.50;2304.00;;;;;;4717082;30;19915;-57
2021/12/25 10:32:26;;;;;;;;;;;307.50;2304.00;;;;;;4717032;30;19921;-57
2021/12/25 10:34:53;;;;;;;;;;;307.40;2304.00;;;;;;4721315;30;20001;-56
2021/12/25 10:37:20;;;;;;;;;;;307.40;2304.00;;;;;;4730810;30;20436;-59
2021/12/25 10:39:46;;;;;;;;;;;307.40;2304.00;;;;;;4761837;30;19917;-57
2021/12/25 10:42:20;;;;;;;;;;;307.40;2304.00;;;;;;4763511;30;19921;-57
2021/12/25 10:45:07;;;;;;;;;;;307.40;2304.00;;;;;;4756693;30;19914;-57
2021/12/25 10:47:33;;;;;;;;;;;307.40;2304.00;;;;;;4753177;30;19964;-57
2021/12/25 10:50:02;;;;;;;;;;;307.20;2304.00;;;;;;4753442;30;20284;-57
2021/12/25 10:52:30;;;;;;;;;;;307.20;2304.00;;;;;;4753322;30;19966;-56
2021/12/25 10:55:01;;;;;;;;;;;307.20;2304.00;;;;;;4752968;30;19914;-57
2021/12/25 10:57:30;;;;;;;;;;;307.20;2304.00;;;;;;4759035;30;19992;-56
2021/12/25 10:59:56;;;;;;;;;;;307.30;2304.00;;;;;;4761039;30;20379;-56
2021/12/25 11:02:31;;;;;;;;;;;307.30;2304.00;;;;;;4757936;30;19968;-55
2021/12/25 11:04:57;;;;;;;;;;;307.40;2304.00;;;;;;4756591;30;19956;-56
2021/12/25 11:07:24;;;;;;;;;;;307.40;2304.00;;;;;;4761917;30;19971;-61
2021/12/25 11:10:10;;;;;;;;;;;307.40;2304.00;;;;;;4771308;30;19913;-56
2021/12/25 11:12:35;;;;;;;;;;;307.40;2304.00;;;;;;4766916;30;19914;-57
2021/12/25 11:15:29;;;;;;;;;;;307.40;2304.00;;;;;;4768647;30;19918;-57
2021/12/25 11:18:06;;;;;;;;;;;307.40;2304.00;;;;;;4770128;30;19967;-57
2021/12/25 11:20:33;;;;;;;;;;;307.40;2304.00;;;;;;4762048;30;19914;-57
2021/12/25 11:23:00;;;;;;;;;;;307.50;2304.00;;;;;;4771714;30;19963;-57
2021/12/25 11:25:29;;;;;;;;;;;307.40;2304.00;;;;;;4757511;30;19922;-56
2021/12/25 11:27:55;;;;;;;;;;;307.60;2304.00;;;;;;4759509;30;20004;-57
2021/12/25 11:30:21;;;;;;;;;;;307.50;2304.00;;;;;;4762045;30;20020;-57
2021/12/25 11:32:48;;;;;;;;;;;307.60;2304.00;;;;;;4744644;30;19960;-56
2021/12/25 11:35:15;;;;;;;;;;;307.60;2304.00;;;;;;4761346;30;19914;-57
2021/12/25 11:37:41;;;;;;;;;;;307.70;2304.00;;;;;;4762786;30;19963;-57
2021/12/25 11:40:08;;;;;;;;;;;307.70;2304.00;;;;;;4762032;30;19929;-57
2021/12/25 11:42:34;;;;;;;;;;;307.80;2304.00;;;;;;4758467;30;19920;-56
2021/12/25 11:45:11;;;;;;;;;;;307.90;2304.00;;;;;;4762309;30;19910;-55
2021/12/25 11:47:38;;;;;;;;;;;307.90;2304.00;;;;;;4769211;30;20429;-57
2021/12/25 11:50:11;;;;;;;;;;;307.90;2304.00;;;;;;4764757;30;19918;-58
2021/12/25 11:52:44;;;;;;;;;;;307.90;2304.00;;;;;;4754109;30;19918;-55
2021/12/25 11:56:16;;;;;;;;;;;307.90;2304.00;;;;;;4753116;30;19914;-57
2021/12/25 11:58:41;;;;;;;;;;;307.90;2304.00;;;;;;4752530;30;19910;-57
2021/12/25 12:01:17;;;;;;;;;;;307.80;2304.00;;;;;;4752947;30;19910;-56
2021/12/25 12:03:44;;;;;;;;;;;307.90;2304.00;;;;;;4752791;30;19910;-56
2021/12/25 12:06:12;;;;;;;;;;;307.90;2304.00;;;;;;4752538;30;19916;-56
2021/12/25 12:08:53;;;;;;;;;;;307.90;2304.00;;;;;;4760091;30;20347;-56
2021/12/25 12:11:25;;;;;;;;;;;307.90;2304.00;;;;;;4764603;30;19944;-56
2021/12/25 12:14:26;;;;;;;;;;;307.90;2304.00;;;;;;4769609;30;19914;-54
2021/12/25 12:16:52;;;;;;;;;;;307.90;2304.00;;;;;;4730647;30;19968;-56
2021/12/25 12:19:29;;;;;;;;;;;308.00;2304.00;;;;;;4731059;30;20009;-56
2021/12/25 12:21:55;;;;;;;;;;;308.00;2304.00;;;;;;4730844;30;19967;-56
2021/12/25 12:24:48;;;;;;;;;;;308.00;2304.00;;;;;;4731935;30;20028;-54
2021/12/25 12:27:32;;;;;;;;;;;308.00;2304.00;;;;;;4749400;30;19957;-56
2021/12/25 12:29:58;;;;;;;;;;;308.10;2304.00;;;;;;4750186;30;19970;-55
2021/12/25 12:32:32;;;;;;;;;;;308.10;2304.00;;;;;;4749359;30;19972;-57
2021/12/25 12:34:57;;;;;;;;;;;308.10;2304.00;;;;;;4750119;30;19910;-54
2021/12/25 12:37:24;;;;;;;;;;;308.10;2304.00;;;;;;4746565;30;20454;-57
2021/12/25 12:39:53;;;;;;;;;;;308.10;2304.00;;;;;;4739723;30;19910;-56
2021/12/25 12:42:19;;;;;;;;;;;308.10;2304.00;;;;;;4732553;30;20273;-56
2021/12/25 12:44:48;;;;;;;;;;;308.10;2304.00;;;;;;4730474;30;19914;-56
2021/12/25 12:47:15;;;;;;;;;;;332.80;2329.60;;;;;;4746633;30;19910;-57
2021/12/25 12:49:50;;;;;;;;;;;332.80;2329.60;;;;;;4741149;30;19919;-57
2021/12/25 12:52:39;;;;;;;;;;;308.10;2304.00;;;;;;4759995;30;19921;-57
2021/12/25 12:55:07;;;;;;;;;;;308.10;2304.00;;;;;;4761537;30;19918;-57
2021/12/25 12:57:34;;;;;;;;;;;308.00;2304.00;;;;;;4760985;30;19921;-56
2021/12/25 13:00:00;;;;;;;;;;;308.00;2304.00;;;;;;4759537;30;19946;-56
2021/12/25 13:02:27;;;;;;;;;;;307.90;2304.00;;;;;;4760875;30;19952;-56
2021/12/25 13:04:58;;;;;;;;;;;307.90;2304.00;;;;;;4761059;30;19914;-58
2021/12/25 13:07:27;;;;;;;;;;;307.90;2304.00;;;;;;4759930;30;19975;-56
2021/12/25 13:10:03;;;;;;;;;;;307.80;2304.00;;;;;;4759773;30;20534;-56
2021/12/25 13:15:26;;;;;;;;;;;307.80;2304.00;;;;;;4732162;30;19914;-57
2021/12/25 13:17:59;;;;;;;;;;;307.70;2304.00;;;;;;4731977;30;19998;-57
2021/12/25 13:20:50;;;;;;;;;;;307.70;2304.00;;;;;;4732353;30;19941;-57
2021/12/25 13:23:18;;;;;;;;;;;307.70;2304.00;;;;;;4731351;30;19938;-56
2021/12/25 13:25:48;;;;;;;;;;;307.60;2304.00;;;;;;4731888;30;19928;-57
2021/12/25 13:28:14;;;;;;;;;;;307.60;2304.00;;;;;;4734675;30;19915;-57
2021/12/25 13:30:43;;;;;;;;;;;307.70;2304.00;;;;;;4749682;30;20021;-55
2021/12/25 13:33:12;;;;;;;;;;;307.60;2304.00;;;;;;4749619;30;20427;-56
2021/12/25 13:35:40;;;;;;;;;;;307.70;2304.00;;;;;;4752943;30;19959;-56
2021/12/25 13:38:06;;;;;;;;;;;307.70;2304.00;;;;;;4752276;30;19917;-57
2021/12/25 13:40:32;;;;;;;;;;;307.70;2304.00;;;;;;4751714;30;19914;-56
2021/12/25 13:43:08;;;;;;;;;;;307.70;2304.00;;;;;;4752890;30;19983;-56
2021/12/25 13:45:34;;;;;;;;;;;307.70;2304.00;;;;;;4752593;30;19956;-56
2021/12/25 13:48:00;;;;;;;;;;;307.80;2304.00;;;;;;4752696;30;20009;-56
2021/12/25 13:50:26;;;;;;;;;;;307.80;2304.00;;;;;;4751513;30;19914;-57
2021/12/25 13:52:58;;;;;;;;;;;307.70;2304.00;;;;;;4769718;30;19909;-56
2021/12/25 13:55:28;;;;;;;;;;;307.70;2304.00;;;;;;4773071;30;19990;-55
2021/12/25 13:57:59;;;;;;;;;;;307.60;2304.00;;;;;;4772381;30;19999;-56
2021/12/25 14:00:27;;;;;;;;;;;307.50;2304.00;;;;;;4772479;30;19939;-55
2021/12/25 14:02:55;;;;;;;;;;;307.50;2304.00;;;;;;4772557;30;19909;-56
2021/12/25 14:05:22;;;;;;;;;;;307.50;2304.00;;;;;;4772731;30;20298;-56
2021/12/25 14:07:48;;;;;;;;;;;307.50;2304.00;;;;;;4772326;30;19909;-57
2021/12/25 14:10:15;;;;;;;;;;;307.40;2304.00;;;;;;4772024;30;19975;-56
2021/12/25 14:12:45;;;;;;;;;;;307.40;2304.00;;;;;;4772251;30;20000;-59
2021/12/25 14:15:11;;;;;;;;;;;307.40;2304.00;;;;;;4772374;30;19909;-54
2021/12/25 14:17:37;;;;;;;;;;;307.40;2304.00;;;;;;4772782;30;19916;-57
2021/12/25 14:20:23;;;;;;;;;;;307.30;2304.00;;;;;;4772097;30;20004;-57
2021/12/25 14:23:18;;;;;;;;;;;307.30;2304.00;;;;;;4772602;30;19990;-58
2021/12/25 14:25:46;;;;;;;;;;;307.20;2304.00;;;;;;4769691;30;19922;-58
2021/12/25 14:28:12;;;;;;;;;;;307.20;2304.00;;;;;;4769778;30;19914;-57
2021/12/25 14:31:06;;;;;;;;;;;307.20;2304.00;;;;;;4769831;30;19925;-58
2021/12/25 14:33:35;;;;;;;;;;;307.20;2304.00;;;;;;4769997;30;19997;-57
2021/12/25 14:36:07;;;;;;;;;;;307.20;2304.00;;;;;;4769978;30;19920;-58
2021/12/25 14:38:36;;;;;;;;;;;307.20;2304.00;;;;;;4769785;30;19921;-58
2021/12/25 14:41:02;;;;;;;;;;;282.50;2278.40;;;;;;4769824;30;19959;-57
2021/12/25 14:43:29;;;;;;;;;;;307.40;2304.00;;;;;;4769271;30;20396;-58
2021/12/25 14:45:55;;;;;;;;;;;282.50;2278.40;;;;;;4767301;30;20317;-58
2021/12/25 14:48:26;;;;;;;;;;;282.50;2278.40;;;;;;4767745;30;20004;-57
2021/12/25 14:51:17;;;;;;;;;;;282.50;2278.40;;;;;;4767651;30;19932;-59
2021/12/25 14:53:46;;;;;;;;;;;282.40;2278.40;;;;;;4765709;30;19983;-57
2021/12/25 14:56:19;;;;;;;;;;;282.40;2278.40;;;;;;4768021;30;19914;-57
2021/12/25 14:58:50;;;;;;;;;;;282.40;2278.40;;;;;;4769411;30;19909;-57